Time;durP1;ratioP1;P1;durP2;ratioP2;P2;SDS_P1;SDS_P2;PMS_P1;PMS_P2;Temp;Humidity;BMP_temperature;BMP_pressure;BME280_temperature;BME280_humidity;BME280_pressure;Samples;Min_cycle;Max_cycle;Signal;HPM_P1;HPM_P2
2021/09/28 00:02:23;;;;;;;;;;;;;;;-142.75;100.00;77554.66;5040501;28;19913;-81
2021/09/28 00:04:48;;;;;;;;;;;;;;;-142.75;100.00;77554.66;5036556;28;19920;-80
2021/09/28 00:07:15;;;;;;;;;;;;;;;-142.75;100.00;77558.59;5035975;28;19921;-81
2021/09/28 00:09:40;;;;;;;;;;;;;;;-142.75;100.00;77562.53;5043158;28;19920;-82
2021/09/28 00:12:05;;;;;;;;;;;;;;;-142.75;100.00;77562.53;5024783;28;19917;-80
2021/09/28 00:14:30;;;;;;;;;;;;;;;-142.75;100.00;77568.44;5036972;28;19920;-82
2021/09/28 00:16:56;;;;;;;;;;;;;;;-142.75;100.00;77566.47;5021849;28;19912;-79
2021/09/28 00:19:21;;;;;;;;;;;;;;;-142.75;100.00;77570.41;5043139;28;19913;-80
2021/09/28 00:21:46;;;;;;;;;;;;;;;-142.75;100.00;77578.28;5024452;28;19994;-80
2021/09/28 00:24:12;;;;;;;;;;;;;;;-142.75;100.00;77582.22;5039944;28;19999;-79
2021/09/28 00:26:37;;;;;;;;;;;;;;;-142.75;100.00;77590.09;5024077;28;19919;-81
2021/09/28 00:29:02;;;;;;;;;;;;;;;-142.75;100.00;77592.06;5025982;28;19947;-79
2021/09/28 00:31:28;;;;;;;;;;;;;;;-142.75;100.00;77590.09;5023501;28;19920;-82
2021/09/28 00:33:53;;;;;;;;;;;;;;;-142.75;100.00;77590.09;5042410;28;19917;-80
2021/09/28 00:36:22;;;;;;;;;;;;;;;-142.75;100.00;77597.97;5018217;28;19963;-80
2021/09/28 00:38:48;;;;;;;;;;;;;;;-142.75;100.00;77594.03;5022030;28;19916;-81
2021/09/28 00:41:13;;;;;;;;;;;;;;;-142.75;100.00;77588.13;5025148;28;19913;-79
2021/09/28 00:43:45;;;;;;;;;;;;;;;-142.75;100.00;77584.19;5021803;28;20301;-79
2021/09/28 00:46:11;;;;;;;;;;;;;;;-142.75;100.00;77596.00;5023304;28;19919;-81
2021/09/28 00:48:36;;;;;;;;;;;;;;;-142.75;100.00;77588.13;5035629;28;20593;-81
2021/09/28 00:51:01;;;;;;;;;;;;;;;-142.75;100.00;77586.16;5036594;28;20397;-80
2021/09/28 00:53:26;;;;;;;;;;;;;;;-142.75;100.00;77596.00;5043489;28;19916;-79
2021/09/28 00:55:51;;;;;;;;;;;;;;;-142.75;100.00;77601.91;5041804;28;19913;-79
2021/09/28 00:58:17;;;;;;;;;;;;;;;-142.75;100.00;77609.78;5040638;28;19917;-80
2021/09/28 01:00:42;;;;;;;;;;;;;;;-142.75;100.00;77621.59;5022481;28;19913;-81
2021/09/28 01:03:08;;;;;;;;;;;;;;;-142.75;100.00;77631.44;5018623;28;19921;-80
2021/09/28 01:05:33;;;;;;;;;;;;;;;-142.75;100.00;77627.50;5039518;28;19919;-80
2021/09/28 01:07:59;;;;;;;;;;;;;;;-142.75;100.00;77625.53;5035456;28;19912;-79
2021/09/28 01:10:24;;;;;;;;;;;;;;;-142.75;100.00;77637.34;5041244;28;19920;-80
2021/09/28 01:12:49;;;;;;;;;;;;;;;-142.75;100.00;77637.34;5023019;28;19917;-78
2021/09/28 01:15:14;;;;;;;;;;;;;;;-142.75;100.00;77635.38;5020840;28;21574;-81
2021/09/28 01:17:41;;;;;;;;;;;;;;;-142.75;100.00;77621.59;5046175;28;19920;-78
2021/09/28 01:20:06;;;;;;;;;;;;;;;-142.75;100.00;77623.56;5026539;28;19920;-79
2021/09/28 01:22:31;;;;;;;;;;;;;;;-142.75;100.00;77621.59;5027490;28;20294;-81
2021/09/28 01:24:57;;;;;;;;;;;;;;;-142.75;100.00;77617.66;5029106;28;19998;-79
2021/09/28 01:27:22;;;;;;;;;;;;;;;-142.75;100.00;77621.59;5047920;28;20386;-78
2021/09/28 01:29:47;;;;;;;;;;;;;;;-142.75;100.00;77619.63;5027485;28;20461;-79
2021/09/28 01:32:12;;;;;;;;;;;;;;;-142.75;100.00;77625.53;5030885;28;20333;-80
2021/09/28 01:34:38;;;;;;;;;;;;;;;-142.75;100.00;77625.53;5029833;28;19912;-80
2021/09/28 01:37:03;;;;;;;;;;;;;;;-142.75;100.00;77621.59;5022362;28;19921;-80
2021/09/28 01:39:28;;;;;;;;;;;;;;;-142.75;100.00;77621.59;5044312;28;19951;-80
2021/09/28 01:41:53;;;;;;;;;;;;;;;-142.75;100.00;77619.63;5044143;28;19997;-80
2021/09/28 01:44:20;;;;;;;;;;;;;;;-142.75;100.00;77629.47;5026791;28;20393;-79
2021/09/28 01:46:48;;;;;;;;;;;;;;;-142.75;100.00;77633.41;5042833;28;19924;-80
2021/09/28 01:49:14;;;;;;;;;;;;;;;-142.75;100.00;77633.41;5043693;28;19920;-81
2021/09/28 01:51:40;;;;;;;;;;;;;;;-142.75;100.00;77645.22;5022062;28;19971;-80
2021/09/28 01:54:07;;;;;;;;;;;;;;;-142.75;100.00;77649.16;5046553;28;20311;-81
2021/09/28 01:56:33;;;;;;;;;;;;;;;-142.75;100.00;77651.13;5029209;28;19965;-78
2021/09/28 01:58:58;;;;;;;;;;;;;;;-142.75;100.00;77655.06;5024655;28;20390;-81
2021/09/28 02:01:24;;;;;;;;;;;;;;;-142.75;100.00;77657.03;5048587;28;19920;-81
2021/09/28 02:03:49;;;;;;;;;;;;;;;-142.75;100.00;77657.03;5042752;28;19913;-79
2021/09/28 02:06:16;;;;;;;;;;;;;;;-142.75;100.00;77651.13;5043380;28;19920;-80
2021/09/28 02:08:41;;;;;;;;;;;;;;;-142.75;100.00;77657.03;5023274;28;20375;-79
2021/09/28 02:11:07;;;;;;;;;;;;;;;-142.75;100.00;77668.84;5043695;28;19923;-80
2021/09/28 02:13:32;;;;;;;;;;;;;;;-142.75;100.00;77666.88;5029692;28;19913;-79
2021/09/28 02:15:57;;;;;;;;;;;;;;;-142.75;100.00;77668.84;5026128;28;19971;-80
2021/09/28 02:18:22;;;;;;;;;;;;;;;-142.75;100.00;77668.84;5025101;28;19956;-80
2021/09/28 02:20:47;;;;;;;;;;;;;;;-142.75;100.00;77670.81;5042884;28;19919;-78
2021/09/28 02:23:13;;;;;;;;;;;;;;;-142.75;100.00;77676.72;5046322;28;20324;-79
2021/09/28 02:25:38;;;;;;;;;;;;;;;-142.75;100.00;77674.75;5052244;22;19945;-80
2021/09/28 02:28:03;;;;;;;;;;;;;;;-142.75;100.00;77670.81;5032392;28;20502;-81
2021/09/28 02:30:29;;;;;;;;;;;;;;;-142.75;100.00;77668.84;5027711;28;20390;-81
2021/09/28 02:32:54;;;;;;;;;;;;;;;-142.75;100.00;77674.75;5030747;28;20011;-80
2021/09/28 02:35:19;;;;;;;;;;;;;;;-142.75;100.00;77674.75;5037034;28;20002;-81
2021/09/28 02:37:44;;;;;;;;;;;;;;;-142.75;100.00;77682.63;5010157;28;19914;-82
2021/09/28 02:40:10;;;;;;;;;;;;;;;-142.75;100.00;77688.53;5009576;28;19928;-82
2021/09/28 02:42:35;;;;;;;;;;;;;;;-142.75;100.00;77682.63;5034585;28;19913;-83
2021/09/28 02:45:01;;;;;;;;;;;;;;;-142.75;100.00;77686.56;5033216;28;19961;-84
2021/09/28 02:47:26;;;;;;;;;;;;;;;-142.75;100.00;77688.53;5030474;28;19953;-84
2021/09/28 02:49:52;;;;;;;;;;;;;;;-142.75;100.00;77682.63;5030622;28;19921;-82
2021/09/28 02:52:17;;;;;;;;;;;;;;;-142.75;100.00;77686.56;5012371;28;20004;-82
2021/09/28 02:54:42;;;;;;;;;;;;;;;-142.75;100.00;77680.66;5012490;28;19920;-83
2021/09/28 02:57:07;;;;;;;;;;;;;;;-142.75;100.00;77682.63;5017667;28;20461;-81
2021/09/28 02:59:33;;;;;;;;;;;;;;;-142.75;100.00;77690.50;5010007;28;20193;-84
2021/09/28 03:01:58;;;;;;;;;;;;;;;-142.75;100.00;77694.44;5021284;28;19921;-85
2021/09/28 03:04:23;;;;;;;;;;;;;;;-142.75;100.00;77698.38;5001296;28;19921;-84
2021/09/28 03:06:48;;;;;;;;;;;;;;;-142.75;100.00;77706.25;5012190;28;19944;-81
2021/09/28 03:09:13;;;;;;;;;;;;;;;-142.75;100.00;77696.41;5012023;28;19914;-84
2021/09/28 03:11:39;;;;;;;;;;;;;;;-142.75;100.00;77702.31;5019780;28;19923;-79
2021/09/28 03:14:04;;;;;;;;;;;;;;;-142.75;100.00;77708.22;5034641;28;19960;-81
2021/09/28 03:16:29;;;;;;;;;;;;;;;-142.75;100.00;77704.28;5026771;28;19924;-79
2021/09/28 03:18:54;;;;;;;;;;;;;;;-142.75;100.00;77692.47;5032782;28;19939;-79
2021/09/28 03:21:20;;;;;;;;;;;;;;;-142.75;100.00;77696.41;5009300;28;20301;-82
2021/09/28 03:23:45;;;;;;;;;;;;;;;-142.75;100.00;77706.25;5032886;28;19920;-79
2021/09/28 03:26:10;;;;;;;;;;;;;;;-142.75;100.00;77712.16;5014172;28;19928;-82
2021/09/28 03:28:36;;;;;;;;;;;;;;;-142.75;100.00;77723.97;5012579;28;20019;-81
2021/09/28 03:31:02;;;;;;;;;;;;;;;-142.75;100.00;77727.94;5010099;28;19912;-79
2021/09/28 03:33:27;;;;;;;;;;;;;;;-142.75;100.00;77720.03;5023844;28;20023;-80
2021/09/28 03:35:53;;;;;;;;;;;;;;;-142.75;100.00;77720.03;5025448;28;19913;-80
2021/09/28 03:38:18;;;;;;;;;;;;;;;-142.75;100.00;77720.03;5011667;28;20363;-79
2021/09/28 03:40:43;;;;;;;;;;;;;;;-142.75;100.00;77735.81;5016937;28;19943;-81
2021/09/28 03:43:09;;;;;;;;;;;;;;;-142.75;100.00;77737.78;5031134;28;20391;-82
2021/09/28 03:45:34;;;;;;;;;;;;;;;-142.75;100.00;77753.53;5030662;28;19913;-81
2021/09/28 03:47:59;;;;;;;;;;;;;;;-142.75;100.00;77751.56;5007786;28;19982;-82
2021/09/28 03:50:25;;;;;;;;;;;;;;;-142.75;100.00;77761.41;5009226;28;19983;-82
2021/09/28 03:52:51;;;;;;;;;;;;;;;-142.75;100.00;77769.28;5024770;28;19924;-82
2021/09/28 03:55:19;;;;;;;;;;;;;;;-142.75;100.00;77761.41;5011059;28;19924;-80
2021/09/28 03:57:45;;;;;;;;;;;;;;;-142.75;100.00;77755.50;5006671;28;19936;-80
2021/09/28 04:00:10;;;;;;;;;;;;;;;-142.75;100.00;77763.38;5028147;28;19913;-81
2021/09/28 04:02:35;;;;;;;;;;;;;;;-142.75;100.00;77763.38;5026866;28;19913;-82
2021/09/28 04:05:00;;;;;;;;;;;;;;;-142.75;100.00;77763.38;5003808;28;19960;-81
2021/09/28 04:07:26;;;;;;;;;;;;;;;-142.75;100.00;77771.25;5012921;28;19927;-83
2021/09/28 04:09:51;;;;;;;;;;;;;;;-142.75;100.00;77779.13;5010237;28;19913;-82
2021/09/28 04:12:18;;;;;;;;;;;;;;;-142.75;100.00;77790.94;5016582;28;19921;-82
2021/09/28 04:14:45;;;;;;;;;;;;;;;-142.75;100.00;77790.94;5011001;28;19948;-83
2021/09/28 04:17:10;;;;;;;;;;;;;;;-142.75;100.00;77779.13;5030089;28;19940;-83
2021/09/28 04:19:36;;;;;;;;;;;;;;;-142.75;100.00;77771.25;5016287;28;19913;-82
2021/09/28 04:22:01;;;;;;;;;;;;;;;-142.75;100.00;77775.19;5012986;28;19924;-82
2021/09/28 04:24:28;;;;;;;;;;;;;;;-142.75;100.00;77763.38;5034969;28;19913;-83
2021/09/28 04:26:53;;;;;;;;;;;;;;;-142.75;100.00;77781.09;5006593;28;19940;-81
2021/09/28 04:29:18;;;;;;;;;;;;;;;-142.75;100.00;77785.03;5004932;28;19924;-82
2021/09/28 04:31:44;;;;;;;;;;;;;;;-142.75;100.00;77790.94;5030092;28;19944;-81
2021/09/28 04:34:09;;;;;;;;;;;;;;;-142.75;100.00;77777.16;5010278;28;19921;-78
2021/09/28 04:36:34;;;;;;;;;;;;;;;-142.75;100.00;77781.09;5013705;28;20378;-82
2021/09/28 04:38:59;;;;;;;;;;;;;;;-142.75;100.00;77775.19;5012273;28;19917;-82
2021/09/28 04:41:25;;;;;;;;;;;;;;;-142.75;100.00;77787.00;5030171;28;19936;-79
2021/09/28 04:43:50;;;;;;;;;;;;;;;-142.75;100.00;77777.16;5013494;28;20449;-80
2021/09/28 04:46:16;;;;;;;;;;;;;;;-142.75;100.00;77767.31;5010685;28;19949;-80
2021/09/28 04:48:42;;;;;;;;;;;;;;;-142.75;100.00;77771.25;5039935;28;20000;-82
2021/09/28 04:51:07;;;;;;;;;;;;;;;-142.75;100.00;77735.81;5035683;28;19921;-83
2021/09/28 04:53:32;;;;;;;;;;;;;;;-142.75;100.00;77731.88;5037120;28;20007;-80
2021/09/28 04:55:57;;;;;;;;;;;;;;;-142.75;100.00;77735.81;5033537;28;19913;-81
2021/09/28 04:58:23;;;;;;;;;;;;;;;-142.75;100.00;77745.66;5009092;28;19913;-81
2021/09/28 05:00:49;;;;;;;;;;;;;;;-142.75;100.00;77739.75;5032961;28;19913;-80
2021/09/28 05:03:14;;;;;;;;;;;;;;;-142.75;100.00;77755.50;5018551;28;19919;-79
2021/09/28 05:05:39;;;;;;;;;;;;;;;-142.75;100.00;77767.31;5011943;28;19913;-80
2021/09/28 05:08:05;;;;;;;;;;;;;;;-142.75;100.00;77769.28;5015638;28;20728;-81
2021/09/28 05:10:30;;;;;;;;;;;;;;;-142.75;100.00;77783.06;5016110;28;20429;-83
2021/09/28 05:12:55;;;;;;;;;;;;;;;-142.75;100.00;77790.94;5017694;28;20008;-79
2021/09/28 05:15:20;;;;;;;;;;;;;;;-142.75;100.00;77792.91;5017081;28;19937;-81
2021/09/28 05:17:45;;;;;;;;;;;;;;;-142.75;100.00;77783.06;5031924;28;19913;-81
2021/09/28 05:20:14;;;;;;;;;;;;;;;-142.75;100.00;77779.13;5004188;28;19937;-79
2021/09/28 05:22:39;;;;;;;;;;;;;;;-142.75;100.00;77787.00;5012002;28;19917;-80
2021/09/28 05:25:05;;;;;;;;;;;;;;;-142.75;100.00;77798.81;5025745;28;19985;-81
2021/09/28 05:27:30;;;;;;;;;;;;;;;-142.75;100.00;77798.81;5008665;28;19920;-80
2021/09/28 05:29:55;;;;;;;;;;;;;;;-142.75;100.00;77800.78;5027721;28;19913;-81
2021/09/28 05:32:20;;;;;;;;;;;;;;;-142.75;100.00;77814.56;5032622;28;20371;-81
2021/09/28 05:34:45;;;;;;;;;;;;;;;-142.75;100.00;77804.72;5025705;28;20434;-80
2021/09/28 05:37:11;;;;;;;;;;;;;;;-142.75;100.00;77814.56;5032765;28;19914;-81
2021/09/28 05:39:36;;;;;;;;;;;;;;;-142.75;100.00;77814.56;5009861;28;19924;-79
2021/09/28 05:42:01;;;;;;;;;;;;;;;-142.75;100.00;77814.56;5029153;28;20004;-82
2021/09/28 05:44:26;;;;;;;;;;;;;;;-142.75;100.00;77822.44;5008071;28;20036;-81
2021/09/28 05:46:51;;;;;;;;;;;;;;;-142.75;100.00;77814.56;5021547;28;20267;-84
2021/09/28 05:49:17;;;;;;;;;;;;;;;-142.75;100.00;77814.56;5024750;28;19920;-84
2021/09/28 05:51:49;;;;;;;;;;;;;;;-142.75;100.00;77812.59;5033286;28;19991;-78
2021/09/28 05:54:18;;;;;;;;;;;;;;;-142.75;100.00;77822.44;5022246;28;19921;-79
2021/09/28 05:56:43;;;;;;;;;;;;;;;-142.75;100.00;77822.44;5031445;28;19948;-82
2021/09/28 05:59:08;;;;;;;;;;;;;;;-142.75;100.00;77822.44;5012431;28;19920;-81
2021/09/28 06:01:33;;;;;;;;;;;;;;;-142.75;100.00;77812.59;5013943;28;20012;-81
2021/09/28 06:03:58;;;;;;;;;;;;;;;-142.75;100.00;77806.69;5016580;28;19917;-82
2021/09/28 06:06:27;;;;;;;;;;;;;;;-142.75;100.00;77800.78;5037016;28;19917;-81
2021/09/28 06:08:52;;;;;;;;;;;;;;;-142.75;100.00;77783.06;5013694;28;19940;-80
2021/09/28 06:11:17;;;;;;;;;;;;;;;-142.75;100.00;77773.22;5034529;28;19920;-83
2021/09/28 06:13:42;;;;;;;;;;;;;;;-142.75;100.00;77767.31;5031952;28;19920;-83
2021/09/28 06:16:07;;;;;;;;;;;;;;;-142.75;100.00;77771.25;5037725;28;19948;-80
2021/09/28 06:18:33;;;;;;;;;;;;;;;-142.75;100.00;77759.44;5019000;28;19972;-81
2021/09/28 06:20:58;;;;;;;;;;;;;;;-142.75;100.00;77779.13;5013366;28;19920;-81
2021/09/28 06:23:23;;;;;;;;;;;;;;;-142.75;100.00;77753.53;5012165;28;19920;-82
2021/09/28 06:25:48;;;;;;;;;;;;;;;-142.75;100.00;77747.63;5015805;28;19940;-80
2021/09/28 06:28:13;;;;;;;;;;;;;;;-142.75;100.00;77718.06;5017523;28;19913;-80
2021/09/28 06:30:39;;;;;;;;;;;;;;;-142.75;100.00;77660.97;5032850;28;19927;-80
2021/09/28 06:33:04;;;;;;;;;;;;;;;-142.75;100.00;77597.97;5033384;28;19921;-82
2021/09/28 06:35:29;;;;;;;;;;;;;;;-142.75;100.00;77552.69;5029610;28;19913;-80
2021/09/28 06:37:54;;;;;;;;;;;;;;;-142.75;100.00;77509.38;5021308;28;19935;-81
2021/09/28 06:40:20;;;;;;;;;;;;;;;-142.75;97.46;77444.38;5034747;28;19917;-81
2021/09/28 06:42:45;;;;;;;;;;;;;;;-142.75;92.02;77385.31;5033391;28;19996;-84
2021/09/28 06:45:10;;;;;;;;;;;;;;;-142.75;88.91;77363.66;5026702;28;19936;-80
2021/09/28 06:47:35;;;;;;;;;;;;;;;-142.75;86.94;77267.19;5016356;28;19913;-79
2021/09/28 06:50:01;;;;;;;;;;;;;;;-142.75;82.96;77223.88;5011176;28;20056;-82
2021/09/28 06:52:26;;;;;;;;;;;;;;;-142.75;80.10;77180.56;5028269;28;19924;-83
2021/09/28 06:54:51;;;;;;;;;;;;;;;-142.75;78.97;77125.44;5037014;28;20290;-82
2021/09/28 06:57:16;;;;;;;;;;;;;;;-142.75;76.27;77078.19;5015272;28;19913;-83
2021/09/28 06:59:41;;;;;;;;;;;;;;;-142.75;74.01;76993.53;5022606;28;19921;-81
2021/09/28 07:02:07;;;;;;;;;;;;;;;-142.75;70.79;76932.50;5034065;28;19917;-82
2021/09/28 07:04:32;;;;;;;;;;;;;;;-142.75;68.87;76861.63;5040933;28;20378;-81
2021/09/28 07:06:57;;;;;;;;;;;;;;;-142.75;66.31;76790.78;5030967;28;19917;-82
2021/09/28 07:09:23;;;;;;;;;;;;;;;-142.75;65.74;76741.56;5024384;28;19913;-85
2021/09/28 07:11:48;;;;;;;;;;;;;;;-142.75;64.12;76666.75;5004154;28;19925;-83
2021/09/28 07:14:13;;;;;;;;;;;;;;;-142.75;62.94;76666.75;5009019;28;19913;-83
2021/09/28 07:16:38;;;;;;;;;;;;;;;-142.75;61.15;76710.06;5010730;28;19927;-82
2021/09/28 07:19:04;;;;;;;;;;;;;;;-142.75;62.77;76674.63;5020997;28;19959;-83
2021/09/28 07:21:29;;;;;;;;;;;;;;;-142.75;58.90;76627.38;5038888;28;19952;-81
2021/09/28 07:23:54;;;;;;;;;;;;;;;-142.75;58.93;76519.13;5025594;28;19967;-83
2021/09/28 07:26:19;;;;;;;;;;;;;;;-142.75;55.35;76521.09;5031955;28;19913;-83
2021/09/28 07:28:44;;;;;;;;;;;;;;;-142.75;55.73;76440.38;5004278;28;20394;-83
2021/09/28 07:31:10;;;;;;;;;;;;;;;-142.75;55.16;76432.50;5020723;28;19924;-81
2021/09/28 07:33:35;;;;;;;;;;;;;;;-142.75;55.17;76471.88;5020811;28;19944;-83
2021/09/28 07:36:02;;;;;;;;;;;;;;;-142.75;55.22;76426.59;5021051;28;19944;-83
2021/09/28 07:38:27;;;;;;;;;;;;;;;-142.75;53.99;76428.56;5003599;28;19928;-81
2021/09/28 07:40:52;;;;;;;;;;;;;;;-142.75;54.18;76420.69;5025276;28;19920;-81
2021/09/28 07:43:18;;;;;;;;;;;;;;;-142.75;52.73;76389.19;5024572;28;19917;-82
2021/09/28 07:45:43;;;;;;;;;;;;;;;-142.75;54.50;76495.50;5005443;28;19914;-82
2021/09/28 07:48:09;;;;;;;;;;;;;;;-142.75;54.02;76471.88;5020136;28;19925;-83
2021/09/28 07:50:34;;;;;;;;;;;;;;;-142.75;54.35;76357.69;5036737;28;19974;-81
2021/09/28 07:53:01;;;;;;;;;;;;;;;-142.75;53.09;76326.22;5039385;28;19913;-84
2021/09/28 07:55:26;;;;;;;;;;;;;;;-142.75;51.21;76296.69;5039749;28;19927;-81
2021/09/28 07:57:52;;;;;;;;;;;;;;;-142.75;50.11;76280.94;5022571;28;19913;-82
2021/09/28 08:00:17;;;;;;;;;;;;;;;-142.75;50.17;76330.16;5008510;28;19932;-80
2021/09/28 08:02:42;;;;;;;;;;;;;;;-142.75;52.08;76286.84;4999459;28;19947;-80
2021/09/28 08:05:08;;;;;;;;;;;;;;;-142.75;49.34;76180.56;5019518;28;20272;-81
2021/09/28 08:07:34;;;;;;;;;;;;;;;-142.75;50.36;76178.59;5019297;28;20397;-81
2021/09/28 08:09:59;;;;;;;;;;;;;;;-142.75;48.75;76196.31;5002315;28;19957;-80
2021/09/28 08:12:25;;;;;;;;;;;;;;;-142.75;47.14;76176.63;5019766;28;19913;-81
2021/09/28 08:14:50;;;;;;;;;;;;;;;-142.75;47.38;76121.50;5018461;28;19989;-82
2021/09/28 08:17:15;;;;;;;;;;;;;;;-142.75;46.53;76180.56;5006119;28;19924;-79
2021/09/28 08:19:40;;;;;;;;;;;;;;;-142.75;47.51;76192.38;5040254;28;19920;-79
2021/09/28 08:22:09;;;;;;;;;;;;;;;-142.75;47.36;76278.97;5037382;28;19917;-78
2021/09/28 08:24:40;;;;;;;;;;;;;;;-142.75;49.89;76251.41;5020922;28;20412;-79
2021/09/28 08:29:49;;;;;;;;;;;;;;;-142.75;48.02;76137.25;5040765;28;19978;-77
2021/09/28 08:32:14;;;;;;;;;;;;;;;-142.75;45.32;76275.03;5023154;28;20294;-78
2021/09/28 08:34:40;;;;;;;;;;;;;;;-142.75;49.14;76192.38;5044375;28;19919;-77
2021/09/28 08:37:05;;;;;;;;;;;;;;;-142.75;46.70;76113.63;5026817;28;19913;-78
2021/09/28 08:39:30;;;;;;;;;;;;;;;-142.75;45.96;76225.81;5038426;28;19938;-78
2021/09/28 08:41:57;;;;;;;;;;;;;;;-142.75;46.52;76149.06;5024195;28;19924;-80
2021/09/28 08:44:22;;;;;;;;;;;;;;;-142.75;47.42;76245.50;5042936;28;19939;-79
2021/09/28 08:46:48;;;;;;;;;;;;;;;-142.75;46.69;76180.56;5044424;28;19921;-79
2021/09/28 08:49:14;;;;;;;;;;;;;;;-142.75;49.58;76231.72;5024249;28;20306;-78
2021/09/28 08:51:40;;;;;;;;;;;;;;;-142.75;47.10;76223.84;5050312;28;19929;-77
2021/09/28 08:54:05;;;;;;;;;;;;;;;-142.75;46.85;76121.50;5036336;28;20007;-79
2021/09/28 08:56:31;;;;;;;;;;;;;;;-142.75;45.94;76090.00;5043975;28;19983;-77
2021/09/28 08:59:02;;;;;;;;;;;;;;;-142.75;45.59;76007.34;5026705;28;20286;-78
2021/09/28 09:01:28;;;;;;;;;;;;;;;-142.75;43.71;76007.34;5035413;28;19917;-78
2021/09/28 09:03:53;;;;;;;;;;;;;;;-142.75;42.90;75964.03;5038582;28;19948;-76
2021/09/28 09:06:18;;;;;;;;;;;;;;;-142.75;43.12;75946.34;5034659;28;19987;-77
2021/09/28 09:08:48;;;;;;;;;;;;;;;-142.75;41.95;75946.34;5023168;28;19959;-77
2021/09/28 09:11:14;;;;;;;;;;;;;;;-142.75;41.99;76056.56;5024068;28;20401;-78
2021/09/28 09:13:41;;;;;;;;;;;;;;;-142.75;41.27;75812.50;5044111;28;19920;-77
2021/09/28 09:16:07;;;;;;;;;;;;;;;-142.75;40.52;75670.81;5042721;28;19920;-77
2021/09/28 09:18:33;;;;;;;;;;;;;;;-142.75;41.54;75881.38;5041092;28;20299;-78
2021/09/28 09:20:59;;;;;;;;;;;;;;;-142.75;38.27;75808.56;5040983;28;20379;-77
2021/09/28 09:23:31;;;;;;;;;;;;;;;-142.75;40.10;75944.38;5043169;28;19924;-77
2021/09/28 09:26:13;;;;;;;;;;;;;;;-142.75;39.85;75755.44;5039825;28;20043;-77
2021/09/28 09:28:46;;;;;;;;;;;;;;;-142.75;39.30;75820.38;5040003;28;19913;-76
2021/09/28 09:31:12;;;;;;;;;;;;;;;-142.75;39.70;75784.94;5018877;28;20358;-76
2021/09/28 09:33:38;;;;;;;;;;;;;;;-142.75;40.25;75800.69;5043563;28;19939;-78
2021/09/28 09:36:03;;;;;;;;;;;;;;;-142.75;38.70;75788.88;5044487;28;20419;-76
2021/09/28 09:38:28;;;;;;;;;;;;;;;-142.75;40.28;75806.59;5028485;28;19913;-75
2021/09/28 09:40:54;;;;;;;;;;;;;;;-142.75;40.89;75725.91;5040869;28;19913;-76
2021/09/28 09:43:28;;;;;;;;;;;;;;;-142.75;42.13;75818.41;5042636;28;19923;-76
2021/09/28 09:46:05;;;;;;;;;;;;;;;-142.75;39.66;75725.91;5026302;28;19932;-77
2021/09/28 09:48:32;;;;;;;;;;;;;;;-142.75;39.74;75893.19;5043097;28;20007;-77
2021/09/28 09:51:02;;;;;;;;;;;;;;;-142.75;41.71;75883.34;5045418;28;19913;-77
2021/09/28 09:53:27;;;;;;;;;;;;;;;-142.75;39.63;75704.25;5042528;28;20267;-77
2021/09/28 09:55:53;;;;;;;;;;;;;;;-142.75;37.72;75597.97;5040488;28;19916;-76
2021/09/28 09:58:20;;;;;;;;;;;;;;;-142.75;37.66;75497.63;5046127;28;19927;-77
2021/09/28 10:00:45;;;;;;;;;;;;;;;-142.75;36.57;75448.41;5043737;28;19912;-77
2021/09/28 10:03:11;;;;;;;;;;;;;;;-142.75;39.33;75893.19;5025749;28;20012;-79
2021/09/28 10:05:36;;;;;;;;;;;;;;;-142.75;39.37;75761.34;5049188;28;19951;-77
2021/09/28 10:08:07;;;;;;;;;;;;;;;-142.75;39.10;75633.41;5039980;28;19917;-78
2021/09/28 10:10:32;;;;;;;;;;;;;;;-142.75;37.04;75491.72;5015295;28;19913;-77
2021/09/28 10:12:57;;;;;;;;;;;;;;;-142.75;37.36;75592.09;5043663;28;19928;-78
2021/09/28 10:15:22;;;;;;;;;;;;;;;-142.75;36.73;75536.97;5051745;28;19948;-79
2021/09/28 10:17:48;;;;;;;;;;;;;;;-142.75;35.66;75517.28;5039682;28;19913;-78
2021/09/28 10:20:20;;;;;;;;;;;;;;;-142.75;38.69;75672.78;5042056;28;20378;-75
2021/09/28 10:22:52;;;;;;;;;;;;;;;-142.75;39.96;75741.66;5046985;28;20373;-77
2021/09/28 10:25:26;;;;;;;;;;;;;;;-142.75;38.24;75822.34;5044545;28;19913;-78
2021/09/28 10:27:53;;;;;;;;;;;;;;;-142.75;39.53;75666.88;5023537;28;20391;-75
2021/09/28 10:30:34;;;;;;;;;;;;;;;-142.75;36.84;75590.13;5047354;28;19952;-78
2021/09/28 10:33:02;;;;;;;;;;;;;;;-142.75;36.46;75479.91;5043534;28;19916;-75
2021/09/28 10:35:28;;;;;;;;;;;;;;;-142.75;35.41;75375.59;5044141;28;19920;-77
2021/09/28 10:37:53;;;;;;;;;;;;;;;-142.75;35.84;75377.56;5050743;28;19917;-76
2021/09/28 10:40:19;;;;;;;;;;;;;;;-142.75;34.94;75385.44;5034984;28;19920;-78
2021/09/28 10:42:51;;;;;;;;;;;;;;;-142.75;34.15;75413.00;5048115;28;19917;-76
2021/09/28 10:45:21;;;;;;;;;;;;;;;-142.75;33.46;75464.16;5028560;28;20409;-78
2021/09/28 10:47:53;;;;;;;;;;;;;;;-142.75;35.01;75621.59;5045545;28;19965;-78
2021/09/28 10:50:20;;;;;;;;;;;;;;;-142.75;36.48;75700.31;5045827;28;19917;-81
2021/09/28 10:52:45;;;;;;;;;;;;;;;-142.75;35.98;75702.28;5034426;28;19920;-76
2021/09/28 10:55:11;;;;;;;;;;;;;;;-142.75;35.00;75558.63;5029666;28;19913;-78
2021/09/28 10:58:01;;;;;;;;;;;;;;;-142.75;35.52;75613.72;5025650;28;19920;-79
2021/09/28 11:00:28;;;;;;;;;;;;;;;-142.75;35.71;75592.09;5044880;28;20355;-78
2021/09/28 11:02:57;;;;;;;;;;;;;;;-142.75;33.42;75495.66;5020941;28;19927;-78
2021/09/28 11:05:29;;;;;;;;;;;;;;;-142.75;37.15;75840.06;5037678;28;19921;-77
2021/09/28 11:07:55;;;;;;;;;;;;;;;-142.75;36.54;75704.25;5042565;28;19913;-77
2021/09/28 11:10:20;;;;;;;;;;;;;;;-142.75;36.00;75800.69;5042439;28;20309;-77
2021/09/28 11:12:45;;;;;;;;;;;;;;;-142.75;38.59;76052.63;5042308;28;20402;-78
2021/09/28 11:15:16;;;;;;;;;;;;;;;-142.75;39.93;76151.03;5039905;28;19924;-78
2021/09/28 11:17:42;;;;;;;;;;;;;;;-142.75;38.94;76086.06;5022693;28;19920;-77
2021/09/28 11:20:17;;;;;;;;;;;;;;;-142.75;40.73;76225.81;5042296;28;19920;-78
2021/09/28 11:22:52;;;;;;;;;;;;;;;-142.75;43.05;76269.13;5024470;28;19982;-78
2021/09/28 11:25:17;;;;;;;;;;;;;;;-142.75;43.60;76137.25;5044356;28;19928;-79
2021/09/28 11:27:42;;;;;;;;;;;;;;;-142.75;42.64;75932.56;5024095;28;19917;-78
2021/09/28 11:30:14;;;;;;;;;;;;;;;-142.75;39.18;75782.97;5045928;28;19912;-79
2021/09/28 11:32:40;;;;;;;;;;;;;;;-142.75;37.55;75802.66;5045150;28;19925;-78
2021/09/28 11:35:09;;;;;;;;;;;;;;;-142.75;37.35;75737.72;5042853;28;19913;-76
2021/09/28 11:37:34;;;;;;;;;;;;;;;-142.75;38.00;75936.50;5022844;28;19913;-77
2021/09/28 11:39:59;;;;;;;;;;;;;;;-142.75;39.96;75987.66;5040867;28;19965;-78
2021/09/28 11:42:31;;;;;;;;;;;;;;;-142.75;41.07;76162.84;5025394;28;19920;-77
2021/09/28 11:44:56;;;;;;;;;;;;;;;-142.75;40.33;76334.09;5020706;28;20447;-78
2021/09/28 11:47:23;;;;;;;;;;;;;;;-142.75;40.49;76312.44;5034653;28;20011;-80
2021/09/28 11:49:49;;;;;;;;;;;;;;;-142.75;41.14;76322.28;5030148;28;19918;-76
2021/09/28 11:52:15;;;;;;;;;;;;;;;-142.75;41.77;76401.00;5018920;28;19916;-77
2021/09/28 11:54:44;;;;;;;;;;;;;;;-142.75;43.60;76332.13;5021760;28;20302;-76
2021/09/28 11:57:09;;;;;;;;;;;;;;;-142.75;42.59;76357.69;5018827;28;19920;-77
2021/09/28 11:59:35;;;;;;;;;;;;;;;-142.75;42.06;76381.31;5038358;28;20307;-76
2021/09/28 12:02:00;;;;;;;;;;;;;;;-142.75;42.35;76479.75;5035882;28;19913;-79
2021/09/28 12:07:06;;;;;;;;;;;;;;;-142.75;45.28;76566.34;5035834;28;19913;-76
2021/09/28 12:09:31;;;;;;;;;;;;;;;-142.75;46.36;76507.31;5022817;28;19909;-77
2021/09/28 12:11:58;;;;;;;;;;;;;;;-142.75;46.58;76456.13;5035408;28;19974;-77
2021/09/28 12:14:42;;;;;;;;;;;;;;;-142.75;46.91;76442.34;5039140;28;19992;-76
2021/09/28 12:17:11;;;;;;;;;;;;;;;-142.75;44.27;76426.59;5035174;28;20297;-78
2021/09/28 12:19:37;;;;;;;;;;;;;;;-142.75;43.90;76442.34;5037363;28;20720;-76
2021/09/28 12:22:03;;;;;;;;;;;;;;;-142.75;43.58;76495.50;5037240;28;19963;-78